createdAt,value
2022-12-31T00:00:29.238Z,5.25
2022-12-31T00:03:01.087Z,5.45
2022-12-31T00:05:34.148Z,3.78
2022-12-31T00:08:05.953Z,7.28
2022-12-31T00:10:41.529Z,5.30
2022-12-31T00:13:13.647Z,5.18
2022-12-31T00:15:45.437Z,4.75
2022-12-31T00:18:19.909Z,8.45
2022-12-31T00:20:53.677Z,5.75
2022-12-31T00:23:25.394Z,5.90
2022-12-31T00:25:57.067Z,4.70
2022-12-31T00:28:29.158Z,6.45
2022-12-31T00:31:09.433Z,5.97
2022-12-31T00:33:41.968Z,5.32
2022-12-31T00:36:22.429Z,6.03
2022-12-31T00:38:57.696Z,4.88
2022-12-31T00:41:29.647Z,5.85
2022-12-31T00:44:01.669Z,4.32
2022-12-31T00:46:33.577Z,4.97
2022-12-31T00:49:06.007Z,5.28
2022-12-31T00:51:37.803Z,5.97
2022-12-31T00:54:10.240Z,5.57
2022-12-31T00:56:41.946Z,4.95
2022-12-31T00:59:13.724Z,5.85
2022-12-31T01:01:45.763Z,5.22
2022-12-31T01:04:20.979Z,5.35
2022-12-31T01:06:52.683Z,4.78
2022-12-31T01:09:24.411Z,5.75
2022-12-31T01:11:56.106Z,5.60
2022-12-31T01:14:27.918Z,4.13
2022-12-31T01:16:59.626Z,6.35
2022-12-31T01:19:31.412Z,4.45
2022-12-31T01:22:03.092Z,4.45
2022-12-31T01:24:34.857Z,4.07
2022-12-31T01:27:09.340Z,3.30
2022-12-31T01:29:41.198Z,4.72
2022-12-31T01:32:12.912Z,4.20
2022-12-31T01:34:44.681Z,4.03
2022-12-31T01:37:16.471Z,4.22
2022-12-31T01:39:48.490Z,4.55
2022-12-31T01:42:20.214Z,3.38
2022-12-31T01:44:54.895Z,3.92
2022-12-31T01:47:37.995Z,4.10
2022-12-31T01:50:16.830Z,4.28
2022-12-31T01:52:52.411Z,4.22
2022-12-31T01:55:52.793Z,3.05
2022-12-31T01:58:44.235Z,4.32
2022-12-31T02:01:23.821Z,3.63
2022-12-31T02:03:57.418Z,3.65
2022-12-31T02:06:44.090Z,4.22
2022-12-31T02:09:15.991Z,3.40
2022-12-31T02:11:47.980Z,3.63
2022-12-31T02:14:31.502Z,5.07
2022-12-31T02:17:24.654Z,2.85
2022-12-31T02:20:20.559Z,3.22
2022-12-31T02:23:17.562Z,4.28
2022-12-31T02:26:07.495Z,4.05
2022-12-31T02:28:42.042Z,3.47
2022-12-31T02:31:21.627Z,3.40
2022-12-31T02:34:02.370Z,3.08
2022-12-31T02:36:38.315Z,3.20
2022-12-31T02:39:12.518Z,2.63
2022-12-31T02:41:51.317Z,2.95
2022-12-31T02:44:26.848Z,4.18
2022-12-31T02:47:10.583Z,4.00
2022-12-31T02:50:03.876Z,3.05
2022-12-31T02:52:38.220Z,3.40
2022-12-31T02:55:15.705Z,4.28
2022-12-31T02:58:13.148Z,3.08
2022-12-31T03:01:14.672Z,3.75
2022-12-31T03:03:46.465Z,4.68
2022-12-31T03:06:18.484Z,3.60
2022-12-31T03:09:11.107Z,3.08
2022-12-31T03:12:01.332Z,4.40
2022-12-31T03:14:33.222Z,4.15
2022-12-31T03:17:05.013Z,3.10
2022-12-31T03:19:55.044Z,2.53
2022-12-31T03:22:29.694Z,3.30
2022-12-31T03:25:26.234Z,2.20
2022-12-31T03:27:58.369Z,2.42
2022-12-31T03:30:32.154Z,3.10
2022-12-31T03:33:05.499Z,2.97
2022-12-31T03:35:38.803Z,3.60
2022-12-31T03:38:10.625Z,3.53
2022-12-31T03:40:45.244Z,3.47
2022-12-31T03:43:19.379Z,2.30
2022-12-31T03:45:52.863Z,2.72
2022-12-31T03:48:24.648Z,3.28
2022-12-31T03:50:56.402Z,2.38
2022-12-31T03:53:28.235Z,4.20
2022-12-31T03:55:59.975Z,2.83
2022-12-31T03:58:31.685Z,2.63
2022-12-31T04:01:03.591Z,1.80
2022-12-31T04:03:35.426Z,2.75
2022-12-31T04:06:07.279Z,2.63
2022-12-31T04:08:39.074Z,2.30
2022-12-31T04:11:12.801Z,2.78
2022-12-31T04:13:47.749Z,2.90
2022-12-31T04:16:22.480Z,2.08
2022-12-31T04:19:00.076Z,2.13
2022-12-31T04:21:35.151Z,3.80
2022-12-31T04:24:07.575Z,2.85
2022-12-31T04:26:39.733Z,3.95
2022-12-31T04:29:11.527Z,2.33
2022-12-31T04:31:43.262Z,2.45
2022-12-31T04:34:15.035Z,2.72
2022-12-31T04:36:46.822Z,2.22
2022-12-31T04:39:18.569Z,2.88
2022-12-31T04:41:50.679Z,1.67
2022-12-31T04:44:22.856Z,1.98
2022-12-31T04:46:54.536Z,2.25
2022-12-31T04:49:26.279Z,2.30
2022-12-31T04:51:58.009Z,2.10
2022-12-31T04:54:29.800Z,2.28
2022-12-31T04:57:01.486Z,2.33
2022-12-31T04:59:33.405Z,2.17
2022-12-31T05:02:05.199Z,1.77
2022-12-31T05:04:37.069Z,2.05
2022-12-31T05:07:08.842Z,2.30
2022-12-31T05:09:40.626Z,2.10
2022-12-31T05:12:12.286Z,1.63
2022-12-31T05:14:44.046Z,2.47
2022-12-31T05:17:15.711Z,2.03
2022-12-31T05:19:47.465Z,2.78
2022-12-31T05:22:31.307Z,2.25
2022-12-31T05:25:03.095Z,2.10
2022-12-31T05:27:35.169Z,1.98
2022-12-31T05:30:07.754Z,2.25
2022-12-31T05:32:39.729Z,2.08
2022-12-31T05:35:11.645Z,2.15
2022-12-31T05:37:43.630Z,4.70
2022-12-31T05:40:15.840Z,2.70
2022-12-31T05:42:47.583Z,2.05
2022-12-31T05:45:23.863Z,2.17
2022-12-31T05:47:58.674Z,1.90
2022-12-31T05:50:30.377Z,1.48
2022-12-31T05:53:08.915Z,2.58
2022-12-31T05:55:40.713Z,2.03
2022-12-31T05:58:12.518Z,2.08
2022-12-31T06:00:44.695Z,2.53
2022-12-31T06:03:16.438Z,2.30
2022-12-31T06:05:48.214Z,2.88
2022-12-31T06:08:19.895Z,3.33
2022-12-31T06:10:51.661Z,1.77
2022-12-31T06:13:23.337Z,1.48
2022-12-31T06:15:55.228Z,1.25
2022-12-31T06:18:26.972Z,1.73
2022-12-31T06:20:58.926Z,2.90
2022-12-31T06:23:31.085Z,1.58
2022-12-31T06:26:06.924Z,2.03
2022-12-31T06:28:39.667Z,2.25
2022-12-31T06:31:13.764Z,1.75
2022-12-31T06:33:46.937Z,2.00
2022-12-31T06:36:22.205Z,1.45
2022-12-31T06:38:55.199Z,2.83
2022-12-31T06:41:27.023Z,2.20
2022-12-31T06:43:59.242Z,1.48
2022-12-31T06:46:31.009Z,1.77
2022-12-31T06:49:03.079Z,1.88
2022-12-31T06:51:34.949Z,1.70
2022-12-31T06:54:06.739Z,1.52
2022-12-31T06:56:40.421Z,2.65
2022-12-31T06:59:30.988Z,1.13
2022-12-31T07:02:05.794Z,1.08
2022-12-31T07:05:12.902Z,2.10
2022-12-31T07:08:09.640Z,1.65
2022-12-31T07:10:47.296Z,1.50
2022-12-31T07:13:18.963Z,1.15
2022-12-31T07:16:18.239Z,1.30
2022-12-31T07:18:53.060Z,1.75
2022-12-31T07:21:37.265Z,1.20
2022-12-31T07:24:10.577Z,1.25
2022-12-31T07:27:02.939Z,1.08
2022-12-31T07:29:56.480Z,1.52
2022-12-31T07:32:57.057Z,0.90
2022-12-31T07:35:42.128Z,1.30
2022-12-31T07:41:20.975Z,3.13
2022-12-31T07:44:13.215Z,1.50
2022-12-31T07:47:01.823Z,1.02
2022-12-31T07:49:34.340Z,4.10
2022-12-31T07:52:07.560Z,1.13
2022-12-31T07:54:39.315Z,1.58
2022-12-31T07:57:16.533Z,1.17
2022-12-31T08:00:13.826Z,1.88
2022-12-31T08:03:21.643Z,1.58
2022-12-31T08:06:19.402Z,2.97
2022-12-31T08:09:03.825Z,0.88
2022-12-31T08:11:48.349Z,1.08
2022-12-31T08:14:21.506Z,1.20
2022-12-31T08:16:54.472Z,1.52
2022-12-31T08:19:32.539Z,1.88
2022-12-31T08:22:27.190Z,0.90
2022-12-31T08:25:21.116Z,2.00
2022-12-31T08:28:13.574Z,1.92
2022-12-31T08:30:58.579Z,1.50
2022-12-31T08:33:54.061Z,2.17
2022-12-31T08:36:47.521Z,1.73
2022-12-31T08:39:33.783Z,2.63
2022-12-31T08:42:25.384Z,2.00
2022-12-31T08:45:31.797Z,2.53
2022-12-31T08:48:18.238Z,4.70
2022-12-31T08:50:50.127Z,1.63
2022-12-31T08:53:22.194Z,1.88
2022-12-31T08:56:00.626Z,2.80
2022-12-31T08:58:38.548Z,0.95
2022-12-31T09:01:13.817Z,1.55
2022-12-31T09:04:00.021Z,1.48
2022-12-31T09:06:36.416Z,1.98
2022-12-31T09:09:30.106Z,2.08
2022-12-31T09:12:09.532Z,1.92
2022-12-31T09:14:47.141Z,2.95
2022-12-31T09:17:45.079Z,2.15
2022-12-31T09:20:22.774Z,2.08
2022-12-31T09:22:55.696Z,3.90
2022-12-31T09:25:30.607Z,2.03
2022-12-31T09:28:17.878Z,1.35
2022-12-31T09:31:00.854Z,1.23
2022-12-31T09:33:50.133Z,2.95
2022-12-31T09:36:48.838Z,1.05
2022-12-31T09:39:47.851Z,1.83
2022-12-31T09:42:49.073Z,1.42
2022-12-31T09:45:36.769Z,3.90
2022-12-31T09:48:32.943Z,1.50
2022-12-31T09:51:29.376Z,1.45
2022-12-31T09:54:04.233Z,2.45
2022-12-31T09:56:42.696Z,1.40
2022-12-31T09:59:33.183Z,1.67
2022-12-31T10:02:41.249Z,2.80
2022-12-31T10:05:40.876Z,1.00
2022-12-31T10:08:24.814Z,2.10
2022-12-31T10:11:03.463Z,1.87
2022-12-31T10:13:57.459Z,1.75
2022-12-31T10:16:41.627Z,3.25
2022-12-31T10:19:13.338Z,0.82
2022-12-31T10:22:22.393Z,0.98
2022-12-31T10:25:38.476Z,1.70
2022-12-31T10:28:25.899Z,2.83
2022-12-31T10:31:25.064Z,1.42
2022-12-31T10:34:13.100Z,1.73
2022-12-31T10:36:58.795Z,2.30
2022-12-31T10:39:46.122Z,1.77
2022-12-31T10:42:39.042Z,1.67
2022-12-31T10:45:53.496Z,1.45
2022-12-31T10:48:36.903Z,2.03
2022-12-31T10:51:32.915Z,1.17
2022-12-31T10:54:35.804Z,5.07
2022-12-31T10:57:16.338Z,1.80
2022-12-31T11:00:01.502Z,1.83
2022-12-31T11:03:10.510Z,5.45
2022-12-31T11:06:16.971Z,3.03
2022-12-31T11:09:37.452Z,3.90
2022-12-31T11:12:26.370Z,2.47
2022-12-31T11:15:00.676Z,2.25
2022-12-31T11:18:06.804Z,1.65
2022-12-31T11:21:07.472Z,1.10
2022-12-31T11:23:44.791Z,2.03
2022-12-31T11:26:53.916Z,2.95
2022-12-31T11:29:53.552Z,2.58
2022-12-31T11:32:31.264Z,5.57
2022-12-31T11:35:22.766Z,7.47
2022-12-31T11:38:28.627Z,4.35
2022-12-31T11:41:13.289Z,2.40
2022-12-31T11:44:36.116Z,1.65
2022-12-31T11:47:30.708Z,3.03
2022-12-31T11:50:35.649Z,3.72
2022-12-31T11:53:30.960Z,3.25
2022-12-31T11:56:06.780Z,2.92
2022-12-31T11:58:49.538Z,2.08
2022-12-31T12:01:36.384Z,2.05
2022-12-31T12:04:10.631Z,3.22
2022-12-31T12:06:44.385Z,3.38
2022-12-31T12:09:28.759Z,1.63
2022-12-31T12:12:03.891Z,3.85
2022-12-31T12:14:38.461Z,3.28
2022-12-31T12:19:53.171Z,1.83
2022-12-31T12:22:26.663Z,1.55
2022-12-31T12:25:20.678Z,1.48
2022-12-31T12:27:53.060Z,6.75
2022-12-31T12:30:28.315Z,2.17
2022-12-31T12:35:35.669Z,1.85
2022-12-31T12:38:14.894Z,2.95
2022-12-31T12:40:53.977Z,1.27
2022-12-31T12:43:29.831Z,2.38
2022-12-31T12:46:30.300Z,2.80
2022-12-31T12:49:04.079Z,1.35
2022-12-31T12:52:03.043Z,1.08
2022-12-31T12:54:56.715Z,2.40
2022-12-31T12:58:00.879Z,1.58
2022-12-31T13:00:52.009Z,2.42
2022-12-31T13:03:37.563Z,1.48
2022-12-31T13:06:28.886Z,3.50
2022-12-31T13:09:15.682Z,0.75
2022-12-31T13:12:15.969Z,1.48
2022-12-31T13:15:11.551Z,2.47
2022-12-31T13:18:04.427Z,2.92
2022-12-31T13:20:59.794Z,3.22
2022-12-31T13:23:50.293Z,2.83
2022-12-31T13:26:34.123Z,2.45
2022-12-31T13:29:10.586Z,3.03
2022-12-31T13:31:43.094Z,1.75
2022-12-31T13:34:22.396Z,1.60
2022-12-31T13:36:56.773Z,4.07
2022-12-31T13:39:38.006Z,2.83
2022-12-31T13:42:28.824Z,1.98
2022-12-31T13:45:04.400Z,1.38
2022-12-31T13:47:56.571Z,1.77
2022-12-31T13:50:38.754Z,1.23
2022-12-31T13:53:31.441Z,2.38
2022-12-31T13:56:13.213Z,2.45
2022-12-31T13:59:09.998Z,3.30
2022-12-31T14:02:26.772Z,1.50
2022-12-31T14:05:14.022Z,2.35
2022-12-31T14:07:54.980Z,1.77
2022-12-31T14:10:53.051Z,1.65
2022-12-31T14:13:34.597Z,1.58
2022-12-31T14:16:19.780Z,2.92
2022-12-31T14:19:04.925Z,3.17
2022-12-31T14:21:47.193Z,1.75
2022-12-31T14:24:45.324Z,2.80
2022-12-31T14:27:22.852Z,1.98
2022-12-31T14:30:16.787Z,2.30
2022-12-31T14:33:10.861Z,2.75
2022-12-31T14:35:51.751Z,1.60
2022-12-31T14:38:45.302Z,4.13
2022-12-31T14:41:34.013Z,2.60
2022-12-31T14:44:27.111Z,3.20
2022-12-31T14:47:35.362Z,3.58
2022-12-31T14:50:17.355Z,2.00
2022-12-31T14:53:04.059Z,3.45
2022-12-31T14:55:37.248Z,3.40
2022-12-31T14:58:41.374Z,3.35
2022-12-31T15:01:16.486Z,2.38
2022-12-31T15:03:50.550Z,4.90
2022-12-31T15:06:41.951Z,2.15
2022-12-31T15:09:46.368Z,3.40
2022-12-31T15:12:20.715Z,2.83
2022-12-31T15:15:16.615Z,1.67
2022-12-31T15:18:17.429Z,2.45
2022-12-31T15:21:10.892Z,2.50
2022-12-31T15:23:44.047Z,3.90
2022-12-31T15:26:28.448Z,1.52
2022-12-31T15:29:23.091Z,5.10
2022-12-31T15:31:57.347Z,2.42
2022-12-31T15:34:31.035Z,2.45
2022-12-31T15:37:05.766Z,2.53
2022-12-31T15:39:40.893Z,1.88
2022-12-31T15:42:49.229Z,4.65
2022-12-31T15:45:33.204Z,3.45
2022-12-31T15:48:15.624Z,3.10
2022-12-31T15:50:51.646Z,2.78
2022-12-31T15:53:43.541Z,3.63
2022-12-31T15:56:23.664Z,4.70
2022-12-31T15:58:58.887Z,3.13
2022-12-31T16:01:37.102Z,2.70
2022-12-31T16:04:19.961Z,2.90
2022-12-31T16:06:52.614Z,4.22
2022-12-31T16:09:29.766Z,3.33
2022-12-31T16:12:03.977Z,2.25
2022-12-31T16:14:39.480Z,2.80
2022-12-31T16:17:29.878Z,2.38
2022-12-31T16:20:21.116Z,4.55
2022-12-31T16:22:57.544Z,4.60
2022-12-31T16:25:32.705Z,2.60
2022-12-31T16:28:05.159Z,2.65
2022-12-31T16:30:37.121Z,2.35
2022-12-31T16:33:15.009Z,3.88
2022-12-31T16:35:55.590Z,3.78
2022-12-31T16:38:35.702Z,4.43
2022-12-31T16:41:17.568Z,4.10
2022-12-31T16:43:50.242Z,8.27
2022-12-31T16:46:27.123Z,16.10
2022-12-31T16:49:04.367Z,11.60
2022-12-31T16:51:37.925Z,10.98
2022-12-31T16:54:30.639Z,10.60
2022-12-31T16:57:04.665Z,6.05
2022-12-31T16:59:44.158Z,7.10
2022-12-31T17:02:21.936Z,6.45
2022-12-31T17:04:56.273Z,5.70
2022-12-31T17:10:18.335Z,6.25
2022-12-31T17:15:50.869Z,6.28
2022-12-31T17:18:25.765Z,6.70
2022-12-31T17:21:06.938Z,6.13
2022-12-31T17:23:42.641Z,6.18
2022-12-31T17:26:28.177Z,5.03
2022-12-31T17:29:02.076Z,5.63
2022-12-31T17:31:39.852Z,4.65
2022-12-31T17:34:17.014Z,5.20
2022-12-31T17:36:58.884Z,4.60
2022-12-31T17:39:51.775Z,4.13
2022-12-31T17:42:33.027Z,4.88
2022-12-31T17:45:20.452Z,4.45
2022-12-31T17:47:53.785Z,4.90
2022-12-31T17:50:38.803Z,7.07
2022-12-31T17:53:23.039Z,7.10
2022-12-31T17:56:18.733Z,4.18
2022-12-31T17:58:55.297Z,6.28
2022-12-31T18:01:27.199Z,6.07
2022-12-31T18:03:58.985Z,5.85
2022-12-31T18:06:31.013Z,5.72
2022-12-31T18:09:02.817Z,5.75
2022-12-31T18:11:36.700Z,5.40
2022-12-31T18:14:09.151Z,5.05
2022-12-31T18:16:41.006Z,6.85
2022-12-31T18:19:45.747Z,4.43
2022-12-31T18:22:14.496Z,8.27
2022-12-31T18:24:48.409Z,6.82
2022-12-31T18:27:20.845Z,6.88
2022-12-31T18:30:04.288Z,7.57
2022-12-31T18:32:41.424Z,5.50
2022-12-31T18:38:16.486Z,4.50
2022-12-31T18:40:54.850Z,5.90
2022-12-31T18:43:26.678Z,5.88
2022-12-31T18:45:58.457Z,6.22
2022-12-31T18:48:30.196Z,6.25
2022-12-31T18:51:03.903Z,5.97
2022-12-31T18:53:35.564Z,6.93
2022-12-31T18:56:12.809Z,6.55
2022-12-31T18:58:46.008Z,5.78
2022-12-31T19:01:46.348Z,4.25
2022-12-31T19:04:26.944Z,5.50
2022-12-31T19:06:59.486Z,5.13
2022-12-31T19:09:45.102Z,5.55
2022-12-31T19:12:18.250Z,5.47
2022-12-31T19:14:49.950Z,9.15
2022-12-31T19:17:21.821Z,8.98
2022-12-31T19:19:53.536Z,3.83
2022-12-31T19:22:25.262Z,4.65
2022-12-31T19:24:56.963Z,7.65
2022-12-31T19:27:31.780Z,7.05
2022-12-31T19:30:03.913Z,4.20
2022-12-31T19:32:35.687Z,6.20
2022-12-31T19:35:11.852Z,5.63
2022-12-31T19:37:45.455Z,5.50
2022-12-31T19:40:26.913Z,5.38
2022-12-31T19:42:58.723Z,5.57
2022-12-31T19:45:32.019Z,4.90
2022-12-31T19:48:04.003Z,4.38
2022-12-31T19:50:35.908Z,5.22
2022-12-31T19:53:19.542Z,7.35
2022-12-31T19:55:52.427Z,5.22
2022-12-31T19:58:26.453Z,4.32
2022-12-31T20:01:02.878Z,6.55
2022-12-31T20:03:35.494Z,6.20
2022-12-31T20:06:09.946Z,6.70
2022-12-31T20:08:44.768Z,6.10
2022-12-31T20:11:19.606Z,6.00
2022-12-31T20:13:56.438Z,7.28
2022-12-31T20:16:29.777Z,6.35
2022-12-31T20:19:01.602Z,6.45
2022-12-31T20:21:33.453Z,8.20
2022-12-31T20:24:05.420Z,4.93
2022-12-31T20:26:37.170Z,6.15
2022-12-31T20:29:11.698Z,5.95
2022-12-31T20:31:43.448Z,5.72
2022-12-31T20:34:15.135Z,5.70
2022-12-31T20:36:46.922Z,5.97
2022-12-31T20:39:18.757Z,4.75
2022-12-31T20:41:50.757Z,5.40
2022-12-31T20:44:22.480Z,6.68
2022-12-31T20:46:54.219Z,5.07
2022-12-31T20:49:52.145Z,7.10
2022-12-31T20:52:20.895Z,8.80
2022-12-31T20:54:58.568Z,6.82
2022-12-31T20:57:33.808Z,7.03
2022-12-31T21:00:07.134Z,5.72
2022-12-31T21:02:42.415Z,5.35
2022-12-31T21:05:15.022Z,6.40
2022-12-31T21:07:46.811Z,4.82
2022-12-31T21:10:18.672Z,7.20
2022-12-31T21:12:53.409Z,6.13
2022-12-31T21:15:25.527Z,4.50
2022-12-31T21:17:59.183Z,6.70
2022-12-31T21:20:31.139Z,6.28
2022-12-31T21:23:03.127Z,5.25
2022-12-31T21:25:34.932Z,6.20
2022-12-31T21:28:06.725Z,5.00
2022-12-31T21:30:42.122Z,6.57
2022-12-31T21:33:13.977Z,6.30
2022-12-31T21:35:53.780Z,4.60
2022-12-31T21:38:27.436Z,5.78
2022-12-31T21:41:03.440Z,6.65
2022-12-31T21:43:35.304Z,7.40
2022-12-31T21:46:07.696Z,6.10
2022-12-31T21:48:39.560Z,6.50
2022-12-31T21:51:14.201Z,8.70
2022-12-31T21:53:46.044Z,5.97
2022-12-31T21:56:21.106Z,8.00
2022-12-31T21:59:17.471Z,8.00
2022-12-31T22:02:08.173Z,8.95
2022-12-31T22:07:31.901Z,8.35
2022-12-31T22:10:03.842Z,7.93
2022-12-31T22:12:35.637Z,6.13
2022-12-31T22:15:15.175Z,7.55
2022-12-31T22:17:47.844Z,7.13
2022-12-31T22:20:29.348Z,7.50
2022-12-31T22:23:01.157Z,9.07
2022-12-31T22:25:37.826Z,7.88
2022-12-31T22:28:37.449Z,8.73
2022-12-31T22:31:01.440Z,7.65
2022-12-31T22:33:33.299Z,8.63
2022-12-31T22:36:08.511Z,10.30
2022-12-31T22:38:40.618Z,10.32
2022-12-31T22:41:18.251Z,12.27
2022-12-31T22:44:00.233Z,12.30
2022-12-31T22:46:35.497Z,14.13
2022-12-31T22:49:07.284Z,11.73
2022-12-31T22:51:57.360Z,10.55
2022-12-31T22:54:30.641Z,13.18
2022-12-31T22:57:02.415Z,11.43
2022-12-31T22:59:34.112Z,12.48
2022-12-31T23:02:05.814Z,14.95
2022-12-31T23:04:37.880Z,31.20
2022-12-31T23:07:09.692Z,73.35
2022-12-31T23:10:00.327Z,78.88
2022-12-31T23:12:33.330Z,231.40
2022-12-31T23:15:24.026Z,134.85
2022-12-31T23:18:14.192Z,61.78
2022-12-31T23:21:04.551Z,39.83
2022-12-31T23:23:36.265Z,39.80
2022-12-31T23:26:07.998Z,98.40
2022-12-31T23:28:41.901Z,95.60
2022-12-31T23:31:13.677Z,36.90
2022-12-31T23:33:45.429Z,51.83
2022-12-31T23:36:17.143Z,56.83
2022-12-31T23:38:49.023Z,61.05
2022-12-31T23:41:21.424Z,62.83
2022-12-31T23:43:53.138Z,42.90
2022-12-31T23:46:25.066Z,45.65
2022-12-31T23:48:56.829Z,55.78
2022-12-31T23:51:28.714Z,38.47
2022-12-31T23:54:00.969Z,35.78
2022-12-31T23:56:32.845Z,30.20
2022-12-31T23:59:04.909Z,23.08
